createdAt,value
2023-05-03T00:01:43.995Z,7.40
2023-05-03T00:04:11.200Z,9.30
2023-05-03T00:06:39.727Z,7.10
2023-05-03T00:09:06.654Z,7.60
2023-05-03T00:11:34.092Z,9.10
2023-05-03T00:14:01.034Z,10.30
2023-05-03T00:16:28.111Z,8.80
2023-05-03T00:18:55.180Z,9.20
2023-05-03T00:21:22.213Z,8.80
2023-05-03T00:23:49.191Z,9.00
2023-05-03T00:26:16.185Z,7.70
2023-05-03T00:28:43.126Z,8.20
2023-05-03T00:31:10.599Z,7.50
2023-05-03T00:33:37.983Z,8.20
2023-05-03T00:36:12.123Z,8.10
2023-05-03T00:38:39.594Z,7.20
2023-05-03T00:41:07.430Z,7.10
2023-05-03T00:43:35.406Z,7.20
2023-05-03T00:46:16.104Z,6.80
2023-05-03T00:48:46.691Z,7.00
2023-05-03T00:51:14.557Z,7.80
2023-05-03T00:53:42.908Z,6.30
2023-05-03T00:56:09.946Z,6.80
2023-05-03T00:58:40.223Z,6.90
2023-05-03T01:01:07.867Z,7.90
2023-05-03T01:03:38.064Z,8.30
2023-05-03T01:06:23.377Z,7.70
2023-05-03T01:09:10.250Z,6.70
2023-05-03T01:11:39.626Z,6.40
2023-05-03T01:14:12.570Z,6.50
2023-05-03T01:16:51.538Z,6.80
2023-05-03T01:19:29.721Z,6.20
2023-05-03T01:22:10.546Z,7.70
2023-05-03T01:24:38.760Z,6.20
2023-05-03T01:27:05.881Z,7.20
2023-05-03T01:29:32.814Z,7.10
2023-05-03T01:32:03.230Z,7.10
2023-05-03T01:34:48.652Z,6.20
2023-05-03T01:37:15.644Z,6.60
2023-05-03T01:40:05.383Z,7.00
2023-05-03T01:42:34.065Z,7.00
2023-05-03T01:45:03.484Z,7.70
2023-05-03T01:47:31.181Z,7.90
2023-05-03T01:49:59.552Z,11.80
2023-05-03T01:52:27.051Z,23.00
2023-05-03T01:54:54.165Z,7.80
2023-05-03T01:57:21.355Z,7.20
2023-05-03T01:59:48.484Z,7.60
2023-05-03T02:02:15.437Z,7.70
2023-05-03T02:04:42.907Z,7.90
2023-05-03T02:07:10.139Z,9.20
2023-05-03T02:09:37.080Z,10.80
2023-05-03T02:12:04.158Z,10.80
2023-05-03T02:14:33.166Z,10.50
2023-05-03T02:17:00.842Z,8.60
2023-05-03T02:19:27.974Z,8.70
2023-05-03T02:21:54.935Z,10.60
2023-05-03T02:24:23.840Z,11.30
2023-05-03T02:26:51.136Z,10.00
2023-05-03T02:29:18.444Z,9.70
2023-05-03T02:31:45.781Z,10.90
2023-05-03T02:34:12.851Z,11.30
2023-05-03T02:36:39.883Z,17.40
2023-05-03T02:39:07.303Z,10.20
2023-05-03T02:41:34.268Z,11.10
2023-05-03T02:44:01.262Z,11.40
2023-05-03T02:46:28.258Z,10.70
2023-05-03T02:48:55.183Z,10.80
2023-05-03T02:51:22.216Z,11.70
2023-05-03T02:53:49.265Z,10.20
2023-05-03T02:56:16.249Z,10.50
2023-05-03T02:58:43.298Z,7.60
2023-05-03T03:01:11.312Z,7.50
2023-05-03T03:03:38.423Z,8.20
2023-05-03T03:06:05.990Z,8.30
2023-05-03T03:08:36.917Z,9.30
2023-05-03T03:11:04.941Z,12.10
2023-05-03T03:13:33.684Z,10.60
2023-05-03T03:16:01.075Z,9.50
2023-05-03T03:18:28.181Z,8.70
2023-05-03T03:20:55.704Z,7.00
2023-05-03T03:23:22.813Z,9.80
2023-05-03T03:25:49.793Z,12.60
2023-05-03T03:28:17.927Z,15.60
2023-05-03T03:30:45.189Z,15.10
2023-05-03T03:33:24.594Z,15.60
2023-05-03T03:35:52.512Z,17.80
2023-05-03T03:38:20.410Z,24.00
2023-05-03T03:40:50.946Z,18.00
2023-05-03T03:43:18.138Z,21.30
2023-05-03T03:45:45.474Z,16.60
2023-05-03T03:48:12.872Z,15.60
2023-05-03T03:50:39.851Z,17.00
2023-05-03T03:53:09.320Z,21.80
2023-05-03T03:55:37.730Z,22.50
2023-05-03T03:58:05.714Z,17.40
2023-05-03T04:00:34.441Z,14.10
2023-05-03T04:03:07.227Z,13.90
2023-05-03T04:05:34.874Z,12.60
2023-05-03T04:08:01.834Z,13.10
2023-05-03T04:10:30.376Z,13.70
2023-05-03T04:12:57.678Z,14.50
2023-05-03T04:15:24.693Z,15.60
2023-05-03T04:17:52.614Z,16.10
2023-05-03T04:20:20.137Z,18.10
2023-05-03T04:22:48.341Z,18.40
2023-05-03T04:25:17.507Z,21.20
2023-05-03T04:27:49.001Z,19.20
2023-05-03T04:30:17.662Z,17.30
2023-05-03T04:32:47.739Z,16.00
2023-05-03T04:35:16.455Z,15.30
2023-05-03T04:37:46.896Z,15.70
2023-05-03T04:40:17.290Z,12.70
2023-05-03T04:42:46.879Z,13.00
2023-05-03T04:45:14.641Z,13.60
2023-05-03T04:47:43.314Z,12.10
2023-05-03T04:50:11.321Z,12.40
2023-05-03T04:52:43.303Z,11.50
2023-05-03T04:55:11.358Z,11.80
2023-05-03T04:57:39.982Z,11.10
2023-05-03T05:00:12.061Z,10.20
2023-05-03T05:02:42.299Z,10.70
2023-05-03T05:05:10.437Z,10.10
2023-05-03T05:07:37.588Z,9.90
2023-05-03T05:10:05.504Z,9.60
2023-05-03T05:12:33.299Z,8.20
2023-05-03T05:15:04.514Z,7.30
2023-05-03T05:17:32.536Z,7.30
2023-05-03T05:20:01.016Z,7.10
2023-05-03T05:22:29.096Z,6.60
2023-05-03T05:24:58.329Z,7.40
2023-05-03T05:27:27.153Z,6.70
2023-05-03T05:29:54.875Z,6.40
2023-05-03T05:32:22.469Z,8.20
2023-05-03T05:34:55.739Z,6.40
2023-05-03T05:37:24.980Z,6.40
2023-05-03T05:39:52.914Z,6.30
2023-05-03T05:42:21.219Z,8.40
2023-05-03T05:44:48.203Z,6.00
2023-05-03T05:47:15.220Z,5.50
2023-05-03T05:49:43.777Z,7.00
2023-05-03T05:52:11.639Z,5.70
2023-05-03T05:54:38.974Z,6.70
2023-05-03T05:57:06.283Z,6.20
2023-05-03T05:59:33.271Z,6.50
2023-05-03T06:02:00.444Z,6.30
2023-05-03T06:04:29.029Z,5.60
2023-05-03T06:06:56.904Z,6.10
2023-05-03T06:09:25.218Z,6.20
2023-05-03T06:11:56.687Z,6.70
2023-05-03T06:14:25.118Z,6.50
2023-05-03T06:16:52.820Z,7.70
2023-05-03T06:19:20.369Z,7.80
2023-05-03T06:21:47.298Z,5.70
2023-05-03T06:24:21.123Z,7.30
2023-05-03T06:26:50.422Z,6.00
2023-05-03T06:29:18.340Z,6.10
2023-05-03T06:31:46.079Z,5.90
2023-05-03T06:34:14.800Z,5.80
2023-05-03T06:36:43.806Z,5.40
2023-05-03T06:39:11.530Z,5.60
2023-05-03T06:41:38.793Z,5.10
2023-05-03T06:44:07.402Z,5.60
2023-05-03T06:46:34.866Z,6.10
2023-05-03T06:49:02.097Z,5.30
2023-05-03T06:51:30.644Z,5.30
2023-05-03T06:54:00.515Z,5.60
2023-05-03T06:56:27.553Z,4.90
2023-05-03T06:58:54.447Z,5.50
2023-05-03T07:01:21.436Z,4.70
2023-05-03T07:03:48.786Z,4.80
2023-05-03T07:06:16.965Z,4.70
2023-05-03T07:08:44.708Z,5.00
2023-05-03T07:11:12.069Z,4.90
2023-05-03T07:13:39.069Z,4.20
2023-05-03T07:16:06.555Z,5.00
2023-05-03T07:18:35.523Z,5.10
2023-05-03T07:21:07.262Z,4.80
2023-05-03T07:23:35.682Z,5.30
2023-05-03T07:26:02.558Z,4.30
2023-05-03T07:28:29.939Z,4.70
2023-05-03T07:30:56.851Z,4.90
2023-05-03T07:33:24.032Z,6.50
2023-05-03T07:35:51.481Z,8.00
2023-05-03T07:38:18.724Z,4.70
2023-05-03T07:40:46.257Z,4.60
2023-05-03T07:43:14.119Z,6.20
2023-05-03T07:45:42.290Z,5.40
2023-05-03T07:48:09.219Z,4.50
2023-05-03T07:50:36.218Z,4.60
2023-05-03T07:53:03.743Z,4.60
2023-05-03T07:55:33.019Z,5.10
2023-05-03T07:58:00.165Z,4.70
2023-05-03T08:00:27.535Z,4.70
2023-05-03T08:02:54.560Z,4.80
2023-05-03T08:05:21.841Z,4.70
2023-05-03T08:07:50.026Z,4.20
2023-05-03T08:10:16.892Z,4.00
2023-05-03T08:12:45.778Z,3.90
2023-05-03T08:15:13.282Z,4.90
2023-05-03T08:17:45.233Z,4.50
2023-05-03T08:20:12.645Z,4.60
2023-05-03T08:22:40.639Z,4.00
2023-05-03T08:25:08.404Z,4.50
2023-05-03T08:27:35.784Z,4.30
2023-05-03T08:30:03.961Z,4.30
2023-05-03T08:32:32.740Z,3.70
2023-05-03T08:34:59.951Z,4.10
2023-05-03T08:37:26.870Z,4.30
2023-05-03T08:39:53.769Z,5.50
2023-05-03T08:42:20.700Z,4.70
2023-05-03T08:44:48.527Z,4.10
2023-05-03T08:47:17.123Z,3.90
2023-05-03T08:49:44.262Z,5.00
2023-05-03T08:52:12.061Z,4.20
2023-05-03T08:54:39.095Z,4.20
2023-05-03T08:57:10.716Z,4.30
2023-05-03T08:59:50.374Z,5.00
2023-05-03T09:02:17.454Z,4.50
2023-05-03T09:04:44.506Z,5.20
2023-05-03T09:07:12.117Z,4.70
2023-05-03T09:09:39.222Z,4.20
2023-05-03T09:12:06.372Z,3.80
2023-05-03T09:14:47.279Z,4.10
2023-05-03T09:17:16.062Z,4.20
2023-05-03T09:19:58.933Z,3.90
2023-05-03T09:22:31.598Z,4.10
2023-05-03T09:25:00.361Z,5.30
2023-05-03T09:27:27.631Z,3.70
2023-05-03T09:29:54.865Z,3.70
2023-05-03T09:32:25.294Z,3.80
2023-05-03T09:34:52.518Z,3.80
2023-05-03T09:37:21.304Z,3.80
2023-05-03T09:39:48.793Z,3.60
2023-05-03T09:42:17.101Z,3.60
2023-05-03T09:44:54.077Z,3.60
2023-05-03T09:47:25.522Z,3.40
2023-05-03T09:49:53.228Z,3.20
2023-05-03T09:52:20.142Z,3.00
2023-05-03T09:54:47.242Z,3.20
2023-05-03T09:57:14.803Z,3.20
2023-05-03T09:59:42.286Z,3.90
2023-05-03T10:02:09.495Z,5.40
2023-05-03T10:04:43.840Z,4.00
2023-05-03T10:07:14.249Z,3.20
2023-05-03T10:09:46.782Z,3.60
2023-05-03T10:12:17.107Z,3.50
2023-05-03T10:14:46.178Z,4.00
2023-05-03T10:17:47.183Z,3.90
2023-05-03T10:21:12.359Z,3.60
2023-05-03T10:24:09.843Z,3.70
2023-05-03T10:26:37.333Z,3.60
2023-05-03T10:29:07.429Z,4.10
2023-05-03T10:31:48.059Z,3.50
2023-05-03T10:34:25.040Z,3.70
2023-05-03T10:36:55.112Z,6.30
2023-05-03T10:39:22.353Z,3.90
2023-05-03T10:42:00.250Z,3.90
2023-05-03T10:44:28.623Z,4.20
2023-05-03T10:46:55.802Z,3.80
2023-05-03T10:49:23.846Z,3.70
2023-05-03T10:51:51.155Z,5.40
2023-05-03T10:54:19.743Z,4.00
2023-05-03T10:56:56.139Z,3.70
2023-05-03T10:59:23.418Z,4.40
2023-05-03T11:01:51.476Z,3.80
2023-05-03T11:04:41.997Z,3.60
2023-05-03T11:07:10.254Z,3.20
2023-05-03T11:09:38.688Z,3.60
2023-05-03T11:12:07.043Z,4.60
2023-05-03T11:14:34.064Z,3.60
2023-05-03T11:17:01.327Z,3.20
2023-05-03T11:19:29.983Z,3.60
2023-05-03T11:21:57.551Z,3.30
2023-05-03T11:24:24.475Z,3.30
2023-05-03T11:26:51.469Z,3.30
2023-05-03T11:29:19.473Z,4.30
2023-05-03T11:31:46.486Z,3.40
2023-05-03T11:34:14.611Z,3.90
2023-05-03T11:36:42.453Z,3.80
2023-05-03T11:39:11.654Z,3.70
2023-05-03T11:41:38.609Z,3.80
2023-05-03T11:44:37.949Z,3.30
2023-05-03T11:47:05.250Z,3.50
2023-05-03T11:49:32.630Z,3.80
2023-05-03T11:52:01.782Z,4.70
2023-05-03T11:54:31.890Z,5.50
2023-05-03T11:56:59.715Z,3.50
2023-05-03T11:59:39.707Z,3.40
2023-05-03T12:02:08.586Z,4.10
2023-05-03T12:04:43.570Z,3.50
2023-05-03T12:07:13.413Z,3.80
2023-05-03T12:09:43.929Z,3.50
2023-05-03T12:12:21.719Z,3.70
2023-05-03T12:15:03.504Z,3.40
2023-05-03T12:17:37.178Z,5.10
2023-05-03T12:22:56.547Z,3.20
2023-05-03T12:25:27.192Z,3.70
2023-05-03T12:28:17.947Z,4.00
2023-05-03T12:30:46.469Z,3.20
2023-05-03T12:33:16.517Z,3.20
2023-05-03T12:35:47.283Z,3.00
2023-05-03T12:38:16.702Z,3.10
2023-05-03T12:40:48.737Z,3.40
2023-05-03T12:44:41.781Z,2.90
2023-05-03T12:47:11.095Z,3.10
2023-05-03T12:49:39.733Z,3.00
2023-05-03T12:54:41.531Z,3.20
2023-05-03T12:57:15.337Z,3.40
2023-05-03T12:59:43.738Z,3.30
2023-05-03T13:04:57.671Z,4.30
2023-05-03T13:07:29.604Z,3.30
2023-05-03T13:12:28.096Z,3.30
2023-05-03T13:14:56.113Z,3.40
2023-05-03T13:17:23.500Z,3.70
2023-05-03T13:19:51.363Z,4.40
2023-05-03T13:22:18.638Z,3.70
2023-05-03T13:24:46.885Z,3.80
2023-05-03T13:27:14.110Z,3.50
2023-05-03T13:29:41.273Z,3.80
2023-05-03T13:32:08.532Z,3.80
2023-05-03T13:34:36.453Z,3.90
2023-05-03T13:37:04.545Z,4.00
2023-05-03T13:39:32.501Z,3.80
2023-05-03T13:41:59.686Z,4.30
2023-05-03T13:44:26.820Z,4.10
2023-05-03T13:46:53.930Z,4.20
2023-05-03T13:49:21.937Z,4.30
2023-05-03T13:51:48.906Z,3.80
2023-05-03T13:54:15.891Z,3.90
2023-05-03T13:56:43.225Z,3.80
2023-05-03T13:59:12.008Z,3.80
2023-05-03T14:01:39.292Z,4.70
2023-05-03T14:04:06.705Z,3.80
2023-05-03T14:06:34.250Z,4.10
2023-05-03T14:09:01.973Z,4.20
2023-05-03T14:11:30.058Z,3.80
2023-05-03T14:13:59.085Z,3.50
2023-05-03T14:18:57.503Z,4.80
2023-05-03T14:21:25.100Z,5.80
2023-05-03T14:23:52.176Z,4.20
2023-05-03T14:26:19.730Z,4.20
2023-05-03T14:28:47.210Z,4.50
2023-05-03T14:31:14.367Z,4.60
2023-05-03T14:33:41.348Z,4.00
2023-05-03T14:36:08.894Z,3.90
2023-05-03T14:38:37.314Z,4.20
2023-05-03T14:41:04.549Z,3.90
2023-05-03T14:43:32.525Z,4.20
2023-05-03T14:46:01.867Z,4.30
2023-05-03T14:48:28.968Z,4.20
2023-05-03T14:51:04.198Z,4.10
2023-05-03T14:53:32.173Z,4.60
2023-05-03T14:55:59.631Z,3.50
2023-05-03T14:58:26.883Z,3.80
2023-05-03T15:00:54.757Z,4.30
2023-05-03T15:03:22.195Z,4.10
2023-05-03T15:05:49.849Z,3.90
2023-05-03T15:08:17.959Z,3.70
2023-05-03T15:10:45.849Z,4.20
2023-05-03T15:13:14.163Z,4.80
2023-05-03T15:15:46.042Z,3.90
2023-05-03T15:18:14.764Z,3.90
2023-05-03T15:20:41.953Z,3.70
2023-05-03T15:23:09.164Z,4.40
2023-05-03T15:25:37.682Z,4.40
2023-05-03T15:28:04.968Z,5.40
2023-05-03T15:30:32.986Z,4.20
2023-05-03T15:33:01.445Z,6.50
2023-05-03T15:35:28.443Z,4.50
2023-05-03T15:37:55.416Z,4.60
2023-05-03T15:40:25.152Z,4.20
2023-05-03T15:42:53.940Z,4.00
2023-05-03T15:45:24.489Z,3.90
2023-05-03T15:47:51.722Z,4.80
2023-05-03T15:50:18.937Z,4.30
2023-05-03T15:52:51.868Z,4.50
2023-05-03T15:55:22.167Z,4.00
2023-05-03T15:57:49.091Z,4.50
2023-05-03T16:00:16.856Z,4.10
2023-05-03T16:02:44.102Z,3.60
2023-05-03T16:05:11.785Z,4.20
2023-05-03T16:07:39.319Z,4.40
2023-05-03T16:10:07.877Z,4.00
2023-05-03T16:12:35.437Z,4.10
2023-05-03T16:15:03.089Z,4.50
2023-05-03T16:17:30.331Z,3.60
2023-05-03T16:19:58.078Z,3.60
2023-05-03T16:22:25.089Z,3.80
2023-05-03T16:24:53.232Z,4.70
2023-05-03T16:27:20.283Z,4.00
2023-05-03T16:29:47.450Z,3.80
2023-05-03T16:32:14.475Z,3.70
2023-05-03T16:34:41.378Z,3.90
2023-05-03T16:37:08.326Z,4.40
2023-05-03T16:39:35.569Z,4.40
2023-05-03T16:42:02.848Z,3.60
2023-05-03T16:44:29.992Z,4.00
2023-05-03T16:46:57.006Z,3.40
2023-05-03T16:49:23.929Z,3.90
2023-05-03T16:51:51.081Z,3.80
2023-05-03T16:54:18.084Z,3.50
2023-05-03T16:56:45.137Z,5.90
2023-05-03T16:59:12.679Z,5.20
2023-05-03T17:01:39.651Z,5.80
2023-05-03T17:04:06.929Z,7.50
2023-05-03T17:06:34.131Z,4.70
2023-05-03T17:09:01.133Z,4.80
2023-05-03T17:11:28.347Z,4.80
2023-05-03T17:13:55.593Z,4.70
2023-05-03T17:16:22.918Z,4.70
2023-05-03T17:18:50.018Z,5.00
2023-05-03T17:21:19.209Z,5.40
2023-05-03T17:23:46.725Z,5.90
2023-05-03T17:26:14.469Z,5.20
2023-05-03T17:28:41.735Z,8.30
2023-05-03T17:31:08.895Z,5.70
2023-05-03T17:33:36.452Z,5.10
2023-05-03T17:36:05.115Z,5.10
2023-05-03T17:38:33.260Z,5.40
2023-05-03T17:41:07.700Z,5.70
2023-05-03T17:43:35.924Z,5.50
2023-05-03T17:46:11.492Z,4.90
2023-05-03T17:48:40.440Z,6.20
2023-05-03T17:51:07.667Z,6.00
2023-05-03T17:53:34.679Z,5.80
2023-05-03T17:56:01.712Z,5.40
2023-05-03T17:58:29.223Z,8.40
2023-05-03T18:00:57.218Z,5.90
2023-05-03T18:03:25.973Z,5.00
2023-05-03T18:05:53.348Z,5.40
2023-05-03T18:08:20.688Z,5.60
2023-05-03T18:10:47.745Z,6.10
2023-05-03T18:13:15.168Z,7.80
2023-05-03T18:15:42.349Z,6.70
2023-05-03T18:18:09.491Z,5.70
2023-05-03T18:20:36.633Z,5.40
2023-05-03T18:23:03.861Z,6.00
2023-05-03T18:25:33.153Z,4.60
2023-05-03T18:28:02.713Z,5.70
2023-05-03T18:30:29.832Z,5.40
2023-05-03T18:32:57.203Z,4.80
2023-05-03T18:35:24.790Z,4.30
2023-05-03T18:37:53.274Z,4.90
2023-05-03T18:40:20.328Z,5.90
2023-05-03T18:42:47.279Z,5.50
2023-05-03T18:45:15.622Z,5.30
2023-05-03T18:47:42.649Z,5.70
2023-05-03T18:50:09.986Z,5.50
2023-05-03T18:52:37.317Z,5.00
2023-05-03T18:55:04.879Z,5.10
2023-05-03T18:57:31.947Z,5.30
2023-05-03T19:00:01.010Z,5.10
2023-05-03T19:02:31.454Z,5.00
2023-05-03T19:04:59.070Z,4.40
2023-05-03T19:07:26.346Z,4.10
2023-05-03T19:09:54.577Z,4.30
2023-05-03T19:12:21.728Z,4.30
2023-05-03T19:14:48.702Z,4.50
2023-05-03T19:17:15.610Z,4.10
2023-05-03T19:19:42.518Z,4.40
2023-05-03T19:22:09.436Z,4.30
2023-05-03T19:24:36.765Z,4.40
2023-05-03T19:27:04.779Z,3.90
2023-05-03T19:29:33.004Z,4.60
2023-05-03T19:32:00.089Z,5.20
2023-05-03T19:34:28.151Z,4.60
2023-05-03T19:36:55.771Z,4.90
2023-05-03T19:39:22.722Z,4.60
2023-05-03T19:41:50.441Z,4.30
2023-05-03T19:44:18.058Z,4.30
2023-05-03T19:46:45.207Z,5.20
2023-05-03T19:49:12.390Z,4.50
2023-05-03T19:51:39.526Z,5.10
2023-05-03T19:54:06.517Z,5.40
2023-05-03T19:56:34.230Z,5.30
2023-05-03T19:59:01.377Z,4.70
2023-05-03T20:01:29.453Z,4.70
2023-05-03T20:03:57.094Z,4.30
2023-05-03T20:06:24.534Z,4.80
2023-05-03T20:08:51.496Z,4.80
2023-05-03T20:11:19.566Z,4.30
2023-05-03T20:13:46.874Z,3.70
2023-05-03T20:16:14.395Z,4.10
2023-05-03T20:18:42.109Z,3.70
2023-05-03T20:21:12.451Z,4.90
2023-05-03T20:23:39.453Z,4.60
2023-05-03T20:26:06.609Z,4.00
2023-05-03T20:28:35.161Z,4.00
2023-05-03T20:31:02.210Z,4.60
2023-05-03T20:33:29.383Z,4.30
2023-05-03T20:35:56.389Z,4.70
2023-05-03T20:38:23.438Z,4.80
2023-05-03T20:40:50.967Z,4.00
2023-05-03T20:43:19.613Z,4.00
2023-05-03T20:45:47.077Z,3.90
2023-05-03T20:48:15.091Z,4.40
2023-05-03T20:50:42.618Z,3.70
2023-05-03T20:53:09.620Z,4.10
2023-05-03T20:55:36.549Z,3.50
2023-05-03T20:58:03.918Z,4.30
2023-05-03T21:00:31.167Z,4.60
2023-05-03T21:02:58.237Z,4.60
2023-05-03T21:05:25.580Z,4.60
2023-05-03T21:07:53.033Z,4.20
2023-05-03T21:10:20.122Z,3.50
2023-05-03T21:12:47.249Z,4.30
2023-05-03T21:15:14.230Z,4.80
2023-05-03T21:17:41.287Z,4.40
2023-05-03T21:20:09.271Z,4.90
2023-05-03T21:22:36.382Z,5.60
2023-05-03T21:25:04.311Z,4.80
2023-05-03T21:27:31.554Z,4.50
2023-05-03T21:29:58.587Z,3.80
2023-05-03T21:32:25.604Z,3.90
2023-05-03T21:34:53.873Z,4.00
2023-05-03T21:37:20.771Z,3.80
2023-05-03T21:40:00.315Z,4.00
2023-05-03T21:42:29.126Z,3.90
2023-05-03T21:44:56.235Z,4.30
2023-05-03T21:47:23.183Z,3.90
2023-05-03T21:49:51.540Z,4.10
2023-05-03T21:52:18.606Z,4.30
2023-05-03T21:54:46.974Z,3.00
2023-05-03T21:57:13.889Z,3.80
2023-05-03T21:59:40.786Z,3.40
2023-05-03T22:02:08.069Z,4.20
2023-05-03T22:04:36.266Z,4.60
2023-05-03T22:07:05.020Z,4.90
2023-05-03T22:09:31.925Z,5.60
2023-05-03T22:12:00.594Z,5.20
2023-05-03T22:14:33.402Z,3.40
2023-05-03T22:17:00.737Z,3.90
2023-05-03T22:19:28.496Z,4.20
2023-05-03T22:21:55.502Z,5.10
2023-05-03T22:24:22.998Z,4.60
2023-05-03T22:26:50.257Z,5.20
2023-05-03T22:29:17.817Z,5.30
2023-05-03T22:31:45.104Z,5.50
2023-05-03T22:34:12.133Z,4.30
2023-05-03T22:36:39.166Z,4.10
2023-05-03T22:39:06.392Z,3.90
2023-05-03T22:41:33.352Z,4.20
2023-05-03T22:44:00.347Z,4.10
2023-05-03T22:46:27.664Z,4.40
2023-05-03T22:48:54.648Z,4.10
2023-05-03T22:51:21.681Z,4.40
2023-05-03T22:53:48.609Z,4.00
2023-05-03T22:56:15.702Z,3.90
2023-05-03T22:58:42.620Z,5.40
2023-05-03T23:01:12.963Z,3.80
2023-05-03T23:03:40.058Z,3.70
2023-05-03T23:06:07.327Z,3.20
2023-05-03T23:08:34.813Z,4.20
2023-05-03T23:11:01.976Z,4.00
2023-05-03T23:13:29.344Z,4.10
2023-05-03T23:15:56.400Z,4.60
2023-05-03T23:18:23.437Z,4.60
2023-05-03T23:20:50.408Z,4.00
2023-05-03T23:23:17.581Z,3.60
2023-05-03T23:25:44.601Z,3.70
2023-05-03T23:28:11.978Z,4.40
2023-05-03T23:30:43.971Z,4.90
2023-05-03T23:33:11.757Z,4.50
2023-05-03T23:35:39.394Z,4.60
2023-05-03T23:38:06.311Z,4.90
2023-05-03T23:40:33.255Z,4.90
2023-05-03T23:43:00.345Z,3.20
2023-05-03T23:45:27.359Z,3.30
2023-05-03T23:47:54.325Z,3.20
2023-05-03T23:50:21.314Z,4.10
2023-05-03T23:52:48.279Z,3.80
2023-05-03T23:55:15.206Z,4.50
2023-05-03T23:57:42.221Z,4.00
